Halsey, Nebraska
Current Conditions -  °F | °C
As of 12:35 AM on Friday 31 Oct 2014 (Local Time) from KTIF Reporting Station
Clear Clear  
Wind Chill: 27°   Ceiling: Unl
Heat Index: 31°   Visibility: 10mi
Dew Point: 29°   Wind: 5mph
Humidity: 92%   Direction: 10°N
Pressure: 30.47"   Gusts: NA
Location:  41.9°N, 100.27°W
Report Text: KTIF 310535Z AUTO 01004KT 10SM CLR 00/M01 A3047 RMK AO2 T10041015
Loading
Personal Weather Stations






























Interactive Weather Map New forecast layout! Learn more

10-Day Weather Forecast

Advertisements
Track Severe Weather on mobile